Terminal Aerodrome Forecast
Issued by NWS

Home | Current Version | Previous Version | Text Only | Print | Product List | Glossary On
Versions: 1 2 3 4 5 6 7 8 9 10 11 12 13
000
FTUS44 KSJT 030523
TAFBBD
TAF
KBBD 030523Z 0306/0406 06009KT 6SM -DZ BR OVC007
     FM031000 04006KT 2SM -DZ BR OVC004
     FM031800 04008KT 6SM -DZ BR OVC015
      AMD NOT SKED=

USA.gov is the U.S. government's official web portal to all federal, state and local government web resources and services.